sensor_id;sensor_type;location;lat;lon;timestamp;P1;durP1;ratioP1;P2;durP2;ratioP2
48685;SDS011;34485;51.536;3.816;2023-04-30T00:02:09;7.83;;;6.67;;
48685;SDS011;34485;51.536;3.816;2023-04-30T00:04:35;9.50;;;6.57;;
48685;SDS011;34485;51.536;3.816;2023-04-30T00:07:01;9.80;;;6.83;;
48685;SDS011;34485;51.536;3.816;2023-04-30T00:09:26;11.48;;;8.32;;
48685;SDS011;34485;51.536;3.816;2023-04-30T00:11:52;9.30;;;7.43;;
48685;SDS011;34485;51.536;3.816;2023-04-30T00:14:17;10.55;;;7.43;;
48685;SDS011;34485;51.536;3.816;2023-04-30T00:16:43;12.03;;;7.43;;
48685;SDS011;34485;51.536;3.816;2023-04-30T00:19:08;11.63;;;7.83;;
48685;SDS011;34485;51.536;3.816;2023-04-30T00:21:34;12.13;;;7.53;;
48685;SDS011;34485;51.536;3.816;2023-04-30T00:24:00;10.67;;;7.50;;
48685;SDS011;34485;51.536;3.816;2023-04-30T00:26:26;12.77;;;7.28;;
48685;SDS011;34485;51.536;3.816;2023-04-30T00:28:52;14.13;;;8.32;;
48685;SDS011;34485;51.536;3.816;2023-04-30T00:31:18;11.37;;;8.47;;
48685;SDS011;34485;51.536;3.816;2023-04-30T00:33:43;11.35;;;6.78;;
48685;SDS011;34485;51.536;3.816;2023-04-30T00:36:09;14.63;;;7.23;;
48685;SDS011;34485;51.536;3.816;2023-04-30T00:38:35;10.18;;;7.05;;
48685;SDS011;34485;51.536;3.816;2023-04-30T00:41:00;13.33;;;7.67;;
48685;SDS011;34485;51.536;3.816;2023-04-30T00:43:26;10.32;;;7.32;;
48685;SDS011;34485;51.536;3.816;2023-04-30T00:45:52;17.70;;;8.00;;
48685;SDS011;34485;51.536;3.816;2023-04-30T00:48:17;9.98;;;7.88;;
48685;SDS011;34485;51.536;3.816;2023-04-30T00:50:43;9.17;;;6.97;;
48685;SDS011;34485;51.536;3.816;2023-04-30T00:53:09;11.73;;;7.10;;
48685;SDS011;34485;51.536;3.816;2023-04-30T00:55:36;12.18;;;7.63;;
48685;SDS011;34485;51.536;3.816;2023-04-30T00:58:03;11.88;;;8.02;;
48685;SDS011;34485;51.536;3.816;2023-04-30T01:00:29;10.70;;;7.73;;
48685;SDS011;34485;51.536;3.816;2023-04-30T01:02:55;11.48;;;8.13;;
48685;SDS011;34485;51.536;3.816;2023-04-30T01:05:21;14.50;;;7.88;;
48685;SDS011;34485;51.536;3.816;2023-04-30T01:07:47;11.23;;;7.07;;
48685;SDS011;34485;51.536;3.816;2023-04-30T01:10:13;13.98;;;8.90;;
48685;SDS011;34485;51.536;3.816;2023-04-30T01:12:55;15.02;;;7.82;;
48685;SDS011;34485;51.536;3.816;2023-04-30T01:15:35;10.30;;;8.07;;
48685;SDS011;34485;51.536;3.816;2023-04-30T01:18:15;10.70;;;7.77;;
48685;SDS011;34485;51.536;3.816;2023-04-30T01:20:47;13.88;;;8.38;;
48685;SDS011;34485;51.536;3.816;2023-04-30T01:23:26;14.10;;;7.55;;
48685;SDS011;34485;51.536;3.816;2023-04-30T01:29:07;13.52;;;9.10;;
48685;SDS011;34485;51.536;3.816;2023-04-30T01:31:36;9.57;;;7.47;;
48685;SDS011;34485;51.536;3.816;2023-04-30T01:34:01;12.38;;;8.65;;
48685;SDS011;34485;51.536;3.816;2023-04-30T01:50:01;21.00;;;11.15;;
48685;SDS011;34485;51.536;3.816;2023-04-30T01:55:19;17.63;;;10.68;;
48685;SDS011;34485;51.536;3.816;2023-04-30T01:57:54;14.75;;;9.85;;
48685;SDS011;34485;51.536;3.816;2023-04-30T02:00:30;12.87;;;9.47;;
48685;SDS011;34485;51.536;3.816;2023-04-30T02:02:56;21.83;;;10.38;;
48685;SDS011;34485;51.536;3.816;2023-04-30T02:05:22;16.70;;;11.27;;
48685;SDS011;34485;51.536;3.816;2023-04-30T02:07:48;16.17;;;10.00;;
48685;SDS011;34485;51.536;3.816;2023-04-30T02:10:15;18.35;;;11.23;;
48685;SDS011;34485;51.536;3.816;2023-04-30T02:12:51;15.57;;;10.48;;
48685;SDS011;34485;51.536;3.816;2023-04-30T02:15:17;18.77;;;11.03;;
48685;SDS011;34485;51.536;3.816;2023-04-30T02:17:43;18.83;;;11.57;;
48685;SDS011;34485;51.536;3.816;2023-04-30T02:20:08;21.13;;;12.00;;
48685;SDS011;34485;51.536;3.816;2023-04-30T02:22:35;17.13;;;11.73;;
48685;SDS011;34485;51.536;3.816;2023-04-30T02:25:01;22.27;;;10.40;;
48685;SDS011;34485;51.536;3.816;2023-04-30T02:27:28;19.20;;;11.35;;
48685;SDS011;34485;51.536;3.816;2023-04-30T02:29:55;15.87;;;10.80;;
48685;SDS011;34485;51.536;3.816;2023-04-30T02:32:20;19.00;;;12.18;;
48685;SDS011;34485;51.536;3.816;2023-04-30T02:34:46;31.23;;;13.07;;
48685;SDS011;34485;51.536;3.816;2023-04-30T02:37:12;21.77;;;12.23;;
48685;SDS011;34485;51.536;3.816;2023-04-30T02:39:38;23.50;;;13.52;;
48685;SDS011;34485;51.536;3.816;2023-04-30T02:42:05;24.35;;;13.02;;
48685;SDS011;34485;51.536;3.816;2023-04-30T02:44:31;26.92;;;13.05;;
48685;SDS011;34485;51.536;3.816;2023-04-30T02:46:57;20.33;;;14.23;;
48685;SDS011;34485;51.536;3.816;2023-04-30T02:49:23;24.88;;;14.18;;
48685;SDS011;34485;51.536;3.816;2023-04-30T02:51:49;25.10;;;13.10;;
48685;SDS011;34485;51.536;3.816;2023-04-30T02:54:14;19.60;;;12.40;;
48685;SDS011;34485;51.536;3.816;2023-04-30T02:56:40;20.70;;;12.87;;
48685;SDS011;34485;51.536;3.816;2023-04-30T02:59:07;26.42;;;14.05;;
48685;SDS011;34485;51.536;3.816;2023-04-30T03:01:33;21.27;;;13.10;;
48685;SDS011;34485;51.536;3.816;2023-04-30T03:03:59;24.33;;;13.63;;
48685;SDS011;34485;51.536;3.816;2023-04-30T03:06:24;21.07;;;13.60;;
48685;SDS011;34485;51.536;3.816;2023-04-30T03:08:50;20.75;;;12.68;;
48685;SDS011;34485;51.536;3.816;2023-04-30T03:11:15;18.87;;;12.40;;
48685;SDS011;34485;51.536;3.816;2023-04-30T03:13:42;20.23;;;12.70;;
48685;SDS011;34485;51.536;3.816;2023-04-30T03:16:07;22.13;;;13.07;;
48685;SDS011;34485;51.536;3.816;2023-04-30T03:18:33;21.60;;;12.35;;
48685;SDS011;34485;51.536;3.816;2023-04-30T03:20:58;17.47;;;12.03;;
48685;SDS011;34485;51.536;3.816;2023-04-30T03:23:27;22.30;;;12.63;;
48685;SDS011;34485;51.536;3.816;2023-04-30T03:25:53;19.58;;;11.95;;
48685;SDS011;34485;51.536;3.816;2023-04-30T03:28:18;25.40;;;12.80;;
48685;SDS011;34485;51.536;3.816;2023-04-30T03:30:45;21.80;;;12.03;;
48685;SDS011;34485;51.536;3.816;2023-04-30T03:33:10;23.55;;;12.52;;
48685;SDS011;34485;51.536;3.816;2023-04-30T03:35:36;20.67;;;13.20;;
48685;SDS011;34485;51.536;3.816;2023-04-30T03:38:02;20.27;;;12.53;;
48685;SDS011;34485;51.536;3.816;2023-04-30T03:40:27;20.67;;;11.80;;
48685;SDS011;34485;51.536;3.816;2023-04-30T03:42:54;24.05;;;13.25;;
48685;SDS011;34485;51.536;3.816;2023-04-30T03:45:20;25.65;;;13.77;;
48685;SDS011;34485;51.536;3.816;2023-04-30T03:47:45;22.90;;;12.97;;
48685;SDS011;34485;51.536;3.816;2023-04-30T03:50:12;19.42;;;12.68;;
48685;SDS011;34485;51.536;3.816;2023-04-30T03:52:38;20.73;;;12.80;;
48685;SDS011;34485;51.536;3.816;2023-04-30T03:55:04;19.55;;;12.73;;
48685;SDS011;34485;51.536;3.816;2023-04-30T03:57:31;20.13;;;11.47;;
48685;SDS011;34485;51.536;3.816;2023-04-30T03:59:57;15.25;;;11.10;;
48685;SDS011;34485;51.536;3.816;2023-04-30T04:02:23;17.92;;;11.55;;
48685;SDS011;34485;51.536;3.816;2023-04-30T04:04:50;21.13;;;10.52;;
48685;SDS011;34485;51.536;3.816;2023-04-30T04:07:15;20.63;;;11.52;;
48685;SDS011;34485;51.536;3.816;2023-04-30T04:09:41;17.00;;;10.93;;
48685;SDS011;34485;51.536;3.816;2023-04-30T04:12:07;16.98;;;11.70;;
48685;SDS011;34485;51.536;3.816;2023-04-30T04:14:33;23.70;;;13.63;;
48685;SDS011;34485;51.536;3.816;2023-04-30T04:16:58;20.83;;;13.40;;
48685;SDS011;34485;51.536;3.816;2023-04-30T04:19:25;20.05;;;13.00;;
48685;SDS011;34485;51.536;3.816;2023-04-30T04:21:51;20.00;;;12.90;;
48685;SDS011;34485;51.536;3.816;2023-04-30T04:24:17;29.15;;;14.10;;
48685;SDS011;34485;51.536;3.816;2023-04-30T04:26:42;23.10;;;13.47;;
48685;SDS011;34485;51.536;3.816;2023-04-30T04:29:08;21.88;;;13.32;;
48685;SDS011;34485;51.536;3.816;2023-04-30T04:31:35;24.13;;;12.80;;
48685;SDS011;34485;51.536;3.816;2023-04-30T04:34:01;24.05;;;13.93;;
48685;SDS011;34485;51.536;3.816;2023-04-30T04:36:28;30.60;;;13.65;;
48685;SDS011;34485;51.536;3.816;2023-04-30T04:38:54;23.88;;;13.80;;
48685;SDS011;34485;51.536;3.816;2023-04-30T04:41:27;21.83;;;13.47;;
48685;SDS011;34485;51.536;3.816;2023-04-30T04:43:53;19.83;;;12.60;;
48685;SDS011;34485;51.536;3.816;2023-04-30T04:46:18;24.00;;;14.00;;
48685;SDS011;34485;51.536;3.816;2023-04-30T04:48:45;24.40;;;13.13;;
48685;SDS011;34485;51.536;3.816;2023-04-30T04:51:10;25.30;;;14.38;;
48685;SDS011;34485;51.536;3.816;2023-04-30T04:53:36;21.73;;;13.98;;
48685;SDS011;34485;51.536;3.816;2023-04-30T04:56:02;22.00;;;13.38;;
48685;SDS011;34485;51.536;3.816;2023-04-30T04:58:28;23.03;;;12.93;;
48685;SDS011;34485;51.536;3.816;2023-04-30T05:00:54;22.60;;;14.07;;
48685;SDS011;34485;51.536;3.816;2023-04-30T05:03:19;26.37;;;14.73;;
48685;SDS011;34485;51.536;3.816;2023-04-30T05:05:45;25.77;;;13.90;;
48685;SDS011;34485;51.536;3.816;2023-04-30T05:08:11;27.58;;;14.13;;
48685;SDS011;34485;51.536;3.816;2023-04-30T05:10:36;28.52;;;13.25;;
48685;SDS011;34485;51.536;3.816;2023-04-30T05:13:02;24.07;;;14.40;;
48685;SDS011;34485;51.536;3.816;2023-04-30T05:15:28;26.57;;;14.40;;
48685;SDS011;34485;51.536;3.816;2023-04-30T05:17:53;23.25;;;14.48;;
48685;SDS011;34485;51.536;3.816;2023-04-30T05:20:19;23.40;;;14.50;;
48685;SDS011;34485;51.536;3.816;2023-04-30T05:22:45;27.58;;;14.00;;
48685;SDS011;34485;51.536;3.816;2023-04-30T05:25:10;22.77;;;15.00;;
48685;SDS011;34485;51.536;3.816;2023-04-30T05:27:36;24.87;;;15.33;;
48685;SDS011;34485;51.536;3.816;2023-04-30T05:30:02;29.37;;;16.13;;
48685;SDS011;34485;51.536;3.816;2023-04-30T05:32:28;22.98;;;14.45;;
48685;SDS011;34485;51.536;3.816;2023-04-30T05:34:53;26.43;;;14.53;;
48685;SDS011;34485;51.536;3.816;2023-04-30T05:37:19;21.02;;;14.55;;
48685;SDS011;34485;51.536;3.816;2023-04-30T05:39:46;25.50;;;13.38;;
48685;SDS011;34485;51.536;3.816;2023-04-30T05:42:13;22.95;;;14.77;;
48685;SDS011;34485;51.536;3.816;2023-04-30T05:44:39;21.80;;;14.23;;
48685;SDS011;34485;51.536;3.816;2023-04-30T05:47:05;29.52;;;14.27;;
48685;SDS011;34485;51.536;3.816;2023-04-30T05:49:31;22.88;;;14.48;;
48685;SDS011;34485;51.536;3.816;2023-04-30T05:51:56;21.73;;;13.43;;
48685;SDS011;34485;51.536;3.816;2023-04-30T05:54:22;23.30;;;13.43;;
48685;SDS011;34485;51.536;3.816;2023-04-30T05:56:47;19.47;;;13.80;;
48685;SDS011;34485;51.536;3.816;2023-04-30T05:59:13;19.83;;;13.13;;
48685;SDS011;34485;51.536;3.816;2023-04-30T06:01:39;22.58;;;14.35;;
48685;SDS011;34485;51.536;3.816;2023-04-30T06:04:05;22.92;;;14.27;;
48685;SDS011;34485;51.536;3.816;2023-04-30T06:06:31;26.23;;;15.17;;
48685;SDS011;34485;51.536;3.816;2023-04-30T06:08:56;26.63;;;13.90;;
48685;SDS011;34485;51.536;3.816;2023-04-30T06:11:22;19.20;;;12.20;;
48685;SDS011;34485;51.536;3.816;2023-04-30T06:13:49;19.95;;;13.60;;
48685;SDS011;34485;51.536;3.816;2023-04-30T06:16:15;21.27;;;13.90;;
48685;SDS011;34485;51.536;3.816;2023-04-30T06:18:41;19.83;;;12.27;;
48685;SDS011;34485;51.536;3.816;2023-04-30T06:21:07;19.03;;;12.70;;
48685;SDS011;34485;51.536;3.816;2023-04-30T06:23:32;22.70;;;12.90;;
48685;SDS011;34485;51.536;3.816;2023-04-30T06:25:58;20.70;;;13.07;;
48685;SDS011;34485;51.536;3.816;2023-04-30T06:28:24;21.55;;;12.68;;
48685;SDS011;34485;51.536;3.816;2023-04-30T06:30:49;19.03;;;12.17;;
48685;SDS011;34485;51.536;3.816;2023-04-30T06:33:15;15.25;;;11.13;;
48685;SDS011;34485;51.536;3.816;2023-04-30T06:35:41;15.50;;;9.98;;
48685;SDS011;34485;51.536;3.816;2023-04-30T06:38:07;21.83;;;12.17;;
48685;SDS011;34485;51.536;3.816;2023-04-30T06:40:33;17.67;;;11.65;;
48685;SDS011;34485;51.536;3.816;2023-04-30T06:42:59;17.57;;;11.10;;
48685;SDS011;34485;51.536;3.816;2023-04-30T06:45:25;16.23;;;10.75;;
48685;SDS011;34485;51.536;3.816;2023-04-30T06:47:50;13.50;;;11.23;;
48685;SDS011;34485;51.536;3.816;2023-04-30T06:50:17;15.23;;;9.98;;
48685;SDS011;34485;51.536;3.816;2023-04-30T06:52:43;16.02;;;9.52;;
48685;SDS011;34485;51.536;3.816;2023-04-30T06:55:10;14.37;;;9.40;;
48685;SDS011;34485;51.536;3.816;2023-04-30T06:57:35;16.63;;;10.25;;
48685;SDS011;34485;51.536;3.816;2023-04-30T07:00:02;17.30;;;10.05;;
48685;SDS011;34485;51.536;3.816;2023-04-30T07:02:29;15.17;;;9.50;;
48685;SDS011;34485;51.536;3.816;2023-04-30T07:04:56;13.02;;;9.23;;
48685;SDS011;34485;51.536;3.816;2023-04-30T07:07:22;12.23;;;9.25;;
48685;SDS011;34485;51.536;3.816;2023-04-30T07:09:48;13.75;;;9.82;;
48685;SDS011;34485;51.536;3.816;2023-04-30T07:12:14;16.17;;;9.40;;
48685;SDS011;34485;51.536;3.816;2023-04-30T07:14:40;12.50;;;8.30;;
48685;SDS011;34485;51.536;3.816;2023-04-30T07:17:06;10.55;;;7.97;;
48685;SDS011;34485;51.536;3.816;2023-04-30T07:19:32;13.37;;;8.50;;
48685;SDS011;34485;51.536;3.816;2023-04-30T07:21:57;10.20;;;6.95;;
48685;SDS011;34485;51.536;3.816;2023-04-30T07:24:23;8.70;;;7.70;;
48685;SDS011;34485;51.536;3.816;2023-04-30T07:26:49;7.70;;;6.80;;
48685;SDS011;34485;51.536;3.816;2023-04-30T07:29:15;12.13;;;7.30;;
48685;SDS011;34485;51.536;3.816;2023-04-30T07:31:41;9.23;;;7.45;;
48685;SDS011;34485;51.536;3.816;2023-04-30T07:34:06;9.47;;;7.73;;
48685;SDS011;34485;51.536;3.816;2023-04-30T07:36:32;7.38;;;6.50;;
48685;SDS011;34485;51.536;3.816;2023-04-30T07:38:58;7.55;;;6.85;;
48685;SDS011;34485;51.536;3.816;2023-04-30T07:41:24;5.93;;;5.37;;
48685;SDS011;34485;51.536;3.816;2023-04-30T07:43:50;6.10;;;5.60;;
48685;SDS011;34485;51.536;3.816;2023-04-30T07:46:16;5.57;;;4.93;;
48685;SDS011;34485;51.536;3.816;2023-04-30T07:48:41;6.37;;;5.40;;
48685;SDS011;34485;51.536;3.816;2023-04-30T07:51:07;7.82;;;6.22;;
48685;SDS011;34485;51.536;3.816;2023-04-30T07:53:32;6.80;;;6.13;;
48685;SDS011;34485;51.536;3.816;2023-04-30T07:55:58;6.83;;;6.00;;
48685;SDS011;34485;51.536;3.816;2023-04-30T07:58:24;6.88;;;6.35;;
48685;SDS011;34485;51.536;3.816;2023-04-30T08:00:49;5.67;;;5.10;;
48685;SDS011;34485;51.536;3.816;2023-04-30T08:03:15;8.15;;;6.88;;
48685;SDS011;34485;51.536;3.816;2023-04-30T08:05:41;6.93;;;5.45;;
48685;SDS011;34485;51.536;3.816;2023-04-30T08:08:07;8.00;;;7.25;;
48685;SDS011;34485;51.536;3.816;2023-04-30T08:10:33;8.67;;;6.07;;
48685;SDS011;34485;51.536;3.816;2023-04-30T08:13:01;7.43;;;5.60;;
48685;SDS011;34485;51.536;3.816;2023-04-30T08:15:28;7.80;;;5.25;;
48685;SDS011;34485;51.536;3.816;2023-04-30T08:17:54;7.80;;;5.20;;
48685;SDS011;34485;51.536;3.816;2023-04-30T08:20:20;8.65;;;5.85;;
48685;SDS011;34485;51.536;3.816;2023-04-30T08:22:47;5.07;;;4.67;;
48685;SDS011;34485;51.536;3.816;2023-04-30T08:25:13;8.63;;;6.95;;
48685;SDS011;34485;51.536;3.816;2023-04-30T08:27:39;8.70;;;7.55;;
48685;SDS011;34485;51.536;3.816;2023-04-30T08:30:05;8.53;;;6.70;;
48685;SDS011;34485;51.536;3.816;2023-04-30T08:32:33;7.77;;;6.50;;
48685;SDS011;34485;51.536;3.816;2023-04-30T08:35:00;6.85;;;6.20;;
48685;SDS011;34485;51.536;3.816;2023-04-30T08:37:26;6.63;;;5.90;;
48685;SDS011;34485;51.536;3.816;2023-04-30T08:39:51;7.07;;;6.37;;
48685;SDS011;34485;51.536;3.816;2023-04-30T08:42:17;7.82;;;6.32;;
48685;SDS011;34485;51.536;3.816;2023-04-30T08:44:45;7.25;;;6.55;;
48685;SDS011;34485;51.536;3.816;2023-04-30T08:47:12;6.73;;;6.00;;
48685;SDS011;34485;51.536;3.816;2023-04-30T08:49:39;7.30;;;5.88;;
48685;SDS011;34485;51.536;3.816;2023-04-30T08:52:05;9.13;;;6.95;;
48685;SDS011;34485;51.536;3.816;2023-04-30T08:54:31;7.43;;;6.45;;
48685;SDS011;34485;51.536;3.816;2023-04-30T08:56:58;8.15;;;6.68;;
48685;SDS011;34485;51.536;3.816;2023-04-30T08:59:23;6.80;;;6.10;;
48685;SDS011;34485;51.536;3.816;2023-04-30T09:01:49;8.15;;;6.85;;
48685;SDS011;34485;51.536;3.816;2023-04-30T09:04:15;6.63;;;6.03;;
48685;SDS011;34485;51.536;3.816;2023-04-30T09:06:42;6.05;;;5.55;;
48685;SDS011;34485;51.536;3.816;2023-04-30T09:09:08;7.15;;;6.00;;
48685;SDS011;34485;51.536;3.816;2023-04-30T09:11:38;7.53;;;6.82;;
48685;SDS011;34485;51.536;3.816;2023-04-30T09:14:03;7.27;;;6.63;;
48685;SDS011;34485;51.536;3.816;2023-04-30T09:16:45;6.93;;;6.28;;
48685;SDS011;34485;51.536;3.816;2023-04-30T09:19:22;9.40;;;6.80;;
48685;SDS011;34485;51.536;3.816;2023-04-30T09:21:48;9.23;;;7.15;;
48685;SDS011;34485;51.536;3.816;2023-04-30T09:24:13;9.77;;;6.83;;
48685;SDS011;34485;51.536;3.816;2023-04-30T09:26:39;10.05;;;6.10;;
48685;SDS011;34485;51.536;3.816;2023-04-30T09:29:05;11.33;;;6.93;;
48685;SDS011;34485;51.536;3.816;2023-04-30T09:31:37;7.30;;;6.47;;
48685;SDS011;34485;51.536;3.816;2023-04-30T09:34:04;8.18;;;6.55;;
48685;SDS011;34485;51.536;3.816;2023-04-30T09:36:30;9.55;;;7.05;;
48685;SDS011;34485;51.536;3.816;2023-04-30T09:39:09;7.75;;;6.82;;
48685;SDS011;34485;51.536;3.816;2023-04-30T09:41:37;6.70;;;6.10;;
48685;SDS011;34485;51.536;3.816;2023-04-30T09:44:04;8.55;;;6.65;;
48685;SDS011;34485;51.536;3.816;2023-04-30T09:46:30;7.10;;;6.40;;
48685;SDS011;34485;51.536;3.816;2023-04-30T09:49:00;8.57;;;6.03;;
48685;SDS011;34485;51.536;3.816;2023-04-30T09:51:26;8.13;;;6.45;;
48685;SDS011;34485;51.536;3.816;2023-04-30T09:53:53;6.32;;;5.70;;
48685;SDS011;34485;51.536;3.816;2023-04-30T09:56:20;9.70;;;6.50;;
48685;SDS011;34485;51.536;3.816;2023-04-30T09:58:51;7.82;;;6.85;;
48685;SDS011;34485;51.536;3.816;2023-04-30T10:01:19;7.10;;;5.80;;
48685;SDS011;34485;51.536;3.816;2023-04-30T10:03:46;6.55;;;5.93;;
48685;SDS011;34485;51.536;3.816;2023-04-30T10:06:13;8.32;;;6.55;;
48685;SDS011;34485;51.536;3.816;2023-04-30T10:08:46;6.65;;;6.00;;
48685;SDS011;34485;51.536;3.816;2023-04-30T10:11:20;6.97;;;6.15;;
48685;SDS011;34485;51.536;3.816;2023-04-30T10:13:51;7.63;;;5.87;;
48685;SDS011;34485;51.536;3.816;2023-04-30T10:19:06;6.35;;;5.38;;
48685;SDS011;34485;51.536;3.816;2023-04-30T10:21:36;6.60;;;5.35;;
48685;SDS011;34485;51.536;3.816;2023-04-30T10:24:07;6.85;;;6.20;;
48685;SDS011;34485;51.536;3.816;2023-04-30T10:26:34;7.20;;;6.50;;
48685;SDS011;34485;51.536;3.816;2023-04-30T10:29:00;7.97;;;6.47;;
48685;SDS011;34485;51.536;3.816;2023-04-30T10:31:27;7.28;;;6.43;;
48685;SDS011;34485;51.536;3.816;2023-04-30T10:36:47;8.75;;;7.65;;
48685;SDS011;34485;51.536;3.816;2023-04-30T10:39:18;7.53;;;6.80;;
48685;SDS011;34485;51.536;3.816;2023-04-30T10:41:46;9.00;;;7.25;;
48685;SDS011;34485;51.536;3.816;2023-04-30T10:44:12;9.10;;;7.43;;
48685;SDS011;34485;51.536;3.816;2023-04-30T10:46:39;7.63;;;6.45;;
48685;SDS011;34485;51.536;3.816;2023-04-30T10:49:05;7.43;;;6.37;;
48685;SDS011;34485;51.536;3.816;2023-04-30T10:51:43;7.50;;;6.60;;
48685;SDS011;34485;51.536;3.816;2023-04-30T10:54:10;7.90;;;7.10;;
48685;SDS011;34485;51.536;3.816;2023-04-30T10:56:37;7.18;;;6.47;;
48685;SDS011;34485;51.536;3.816;2023-04-30T10:59:03;7.95;;;6.93;;
48685;SDS011;34485;51.536;3.816;2023-04-30T11:01:29;10.13;;;6.67;;
48685;SDS011;34485;51.536;3.816;2023-04-30T11:04:05;7.43;;;6.70;;
48685;SDS011;34485;51.536;3.816;2023-04-30T11:09:41;8.97;;;7.00;;
48685;SDS011;34485;51.536;3.816;2023-04-30T11:12:11;7.53;;;6.82;;
48685;SDS011;34485;51.536;3.816;2023-04-30T11:14:52;7.75;;;7.05;;
48685;SDS011;34485;51.536;3.816;2023-04-30T11:17:22;6.57;;;5.93;;
48685;SDS011;34485;51.536;3.816;2023-04-30T11:19:49;6.20;;;5.45;;
48685;SDS011;34485;51.536;3.816;2023-04-30T11:22:22;9.30;;;6.77;;
48685;SDS011;34485;51.536;3.816;2023-04-30T11:27:23;5.78;;;5.28;;
48685;SDS011;34485;51.536;3.816;2023-04-30T11:29:53;6.28;;;5.60;;
48685;SDS011;34485;51.536;3.816;2023-04-30T11:32:20;8.10;;;6.13;;
48685;SDS011;34485;51.536;3.816;2023-04-30T11:34:47;5.83;;;5.13;;
48685;SDS011;34485;51.536;3.816;2023-04-30T11:37:20;4.60;;;4.20;;
48685;SDS011;34485;51.536;3.816;2023-04-30T11:40:08;5.38;;;4.88;;
48685;SDS011;34485;51.536;3.816;2023-04-30T11:42:38;6.45;;;4.75;;
48685;SDS011;34485;51.536;3.816;2023-04-30T11:47:42;6.57;;;4.97;;
48685;SDS011;34485;51.536;3.816;2023-04-30T11:50:27;9.73;;;4.90;;
48685;SDS011;34485;51.536;3.816;2023-04-30T11:52:58;12.55;;;5.07;;
48685;SDS011;34485;51.536;3.816;2023-04-30T11:55:29;5.60;;;4.97;;
48685;SDS011;34485;51.536;3.816;2023-04-30T11:57:55;5.53;;;5.05;;
48685;SDS011;34485;51.536;3.816;2023-04-30T12:00:27;5.83;;;5.27;;
48685;SDS011;34485;51.536;3.816;2023-04-30T12:02:54;6.00;;;5.32;;
48685;SDS011;34485;51.536;3.816;2023-04-30T12:05:21;5.65;;;4.90;;
48685;SDS011;34485;51.536;3.816;2023-04-30T12:07:49;6.70;;;5.38;;
48685;SDS011;34485;51.536;3.816;2023-04-30T12:10:19;6.00;;;5.13;;
48685;SDS011;34485;51.536;3.816;2023-04-30T12:12:46;7.30;;;6.27;;
48685;SDS011;34485;51.536;3.816;2023-04-30T12:15:14;6.75;;;6.10;;
48685;SDS011;34485;51.536;3.816;2023-04-30T12:17:41;6.10;;;5.53;;
48685;SDS011;34485;51.536;3.816;2023-04-30T12:20:08;4.90;;;4.50;;
48685;SDS011;34485;51.536;3.816;2023-04-30T12:22:35;5.25;;;4.78;;
48685;SDS011;34485;51.536;3.816;2023-04-30T12:25:04;4.83;;;4.43;;
48685;SDS011;34485;51.536;3.816;2023-04-30T12:27:37;5.63;;;5.18;;
48685;SDS011;34485;51.536;3.816;2023-04-30T12:30:07;4.30;;;3.80;;
48685;SDS011;34485;51.536;3.816;2023-04-30T12:32:37;3.83;;;3.53;;
48685;SDS011;34485;51.536;3.816;2023-04-30T12:35:07;4.75;;;4.32;;
48685;SDS011;34485;51.536;3.816;2023-04-30T12:37:33;4.50;;;3.77;;
48685;SDS011;34485;51.536;3.816;2023-04-30T12:39:59;5.18;;;4.32;;
48685;SDS011;34485;51.536;3.816;2023-04-30T12:42:30;4.15;;;3.85;;
48685;SDS011;34485;51.536;3.816;2023-04-30T12:44:57;8.05;;;4.45;;
48685;SDS011;34485;51.536;3.816;2023-04-30T12:47:23;8.00;;;4.93;;
48685;SDS011;34485;51.536;3.816;2023-04-30T12:49:49;4.53;;;4.13;;
48685;SDS011;34485;51.536;3.816;2023-04-30T12:52:15;5.68;;;5.18;;
48685;SDS011;34485;51.536;3.816;2023-04-30T12:54:40;3.63;;;3.33;;
48685;SDS011;34485;51.536;3.816;2023-04-30T12:57:10;4.53;;;4.22;;
48685;SDS011;34485;51.536;3.816;2023-04-30T13:02:17;6.33;;;4.73;;
48685;SDS011;34485;51.536;3.816;2023-04-30T13:04:48;5.38;;;4.88;;
48685;SDS011;34485;51.536;3.816;2023-04-30T13:07:13;6.05;;;5.45;;
48685;SDS011;34485;51.536;3.816;2023-04-30T13:09:39;5.40;;;4.90;;
48685;SDS011;34485;51.536;3.816;2023-04-30T13:12:05;5.55;;;4.95;;
48685;SDS011;34485;51.536;3.816;2023-04-30T13:14:31;5.25;;;4.85;;
48685;SDS011;34485;51.536;3.816;2023-04-30T13:16:57;4.80;;;4.10;;
48685;SDS011;34485;51.536;3.816;2023-04-30T13:19:23;5.22;;;4.72;;
48685;SDS011;34485;51.536;3.816;2023-04-30T13:21:49;8.23;;;5.05;;
48685;SDS011;34485;51.536;3.816;2023-04-30T13:24:14;5.03;;;4.63;;
48685;SDS011;34485;51.536;3.816;2023-04-30T13:26:41;4.15;;;3.85;;
48685;SDS011;34485;51.536;3.816;2023-04-30T13:29:07;6.45;;;4.75;;
48685;SDS011;34485;51.536;3.816;2023-04-30T13:31:33;5.23;;;4.23;;
48685;SDS011;34485;51.536;3.816;2023-04-30T13:33:59;5.13;;;4.68;;
48685;SDS011;34485;51.536;3.816;2023-04-30T13:36:25;4.88;;;4.47;;
48685;SDS011;34485;51.536;3.816;2023-04-30T13:38:51;4.00;;;3.60;;
48685;SDS011;34485;51.536;3.816;2023-04-30T13:41:17;5.20;;;4.43;;
48685;SDS011;34485;51.536;3.816;2023-04-30T13:43:45;4.43;;;4.13;;
48685;SDS011;34485;51.536;3.816;2023-04-30T13:46:11;4.85;;;4.40;;
48685;SDS011;34485;51.536;3.816;2023-04-30T13:48:37;3.80;;;3.50;;
48685;SDS011;34485;51.536;3.816;2023-04-30T13:51:03;3.78;;;3.47;;
48685;SDS011;34485;51.536;3.816;2023-04-30T13:53:28;3.87;;;3.63;;
48685;SDS011;34485;51.536;3.816;2023-04-30T13:55:54;5.70;;;5.30;;
48685;SDS011;34485;51.536;3.816;2023-04-30T13:58:20;4.40;;;4.03;;
48685;SDS011;34485;51.536;3.816;2023-04-30T14:00:46;4.77;;;4.47;;
48685;SDS011;34485;51.536;3.816;2023-04-30T14:03:11;4.53;;;4.07;;
48685;SDS011;34485;51.536;3.816;2023-04-30T14:05:38;5.37;;;4.30;;
48685;SDS011;34485;51.536;3.816;2023-04-30T14:08:03;5.18;;;4.70;;
48685;SDS011;34485;51.536;3.816;2023-04-30T14:10:30;4.38;;;4.00;;
48685;SDS011;34485;51.536;3.816;2023-04-30T14:12:56;4.57;;;4.18;;
48685;SDS011;34485;51.536;3.816;2023-04-30T14:15:21;5.30;;;4.90;;
48685;SDS011;34485;51.536;3.816;2023-04-30T14:17:48;6.53;;;4.50;;
48685;SDS011;34485;51.536;3.816;2023-04-30T14:20:14;5.30;;;4.90;;
48685;SDS011;34485;51.536;3.816;2023-04-30T14:22:40;5.60;;;5.10;;
48685;SDS011;34485;51.536;3.816;2023-04-30T14:25:06;8.15;;;4.82;;
48685;SDS011;34485;51.536;3.816;2023-04-30T14:27:33;5.72;;;5.22;;
48685;SDS011;34485;51.536;3.816;2023-04-30T14:29:58;5.80;;;4.90;;
48685;SDS011;34485;51.536;3.816;2023-04-30T14:32:24;5.63;;;4.85;;
48685;SDS011;34485;51.536;3.816;2023-04-30T14:34:50;4.23;;;3.90;;
48685;SDS011;34485;51.536;3.816;2023-04-30T14:37:16;5.63;;;5.05;;
48685;SDS011;34485;51.536;3.816;2023-04-30T14:39:42;5.57;;;5.05;;
48685;SDS011;34485;51.536;3.816;2023-04-30T14:42:08;5.20;;;4.80;;
48685;SDS011;34485;51.536;3.816;2023-04-30T14:44:34;5.75;;;5.25;;
48685;SDS011;34485;51.536;3.816;2023-04-30T14:47:01;6.30;;;5.35;;
48685;SDS011;34485;51.536;3.816;2023-04-30T14:49:27;5.78;;;5.28;;
48685;SDS011;34485;51.536;3.816;2023-04-30T14:51:53;5.13;;;4.73;;
48685;SDS011;34485;51.536;3.816;2023-04-30T14:54:19;5.97;;;5.33;;
48685;SDS011;34485;51.536;3.816;2023-04-30T14:56:45;6.22;;;5.63;;
48685;SDS011;34485;51.536;3.816;2023-04-30T14:59:11;6.47;;;5.88;;
48685;SDS011;34485;51.536;3.816;2023-04-30T15:01:37;4.93;;;4.53;;
48685;SDS011;34485;51.536;3.816;2023-04-30T15:04:03;6.40;;;5.68;;
48685;SDS011;34485;51.536;3.816;2023-04-30T15:06:29;8.43;;;6.43;;
48685;SDS011;34485;51.536;3.816;2023-04-30T15:08:55;6.72;;;6.10;;
48685;SDS011;34485;51.536;3.816;2023-04-30T15:11:21;6.60;;;6.10;;